sensor_id;sensor_type;location;lat;lon;timestamp;pressure;altitude;pressure_sealevel;temperature;humidity
75891;BME280;64571;47.512;19.054;2022-11-12T00:01:13;102038.66;;;10.00;82.43
75891;BME280;64571;47.512;19.054;2022-11-12T00:04:34;102035.28;;;9.98;82.31
75891;BME280;64571;47.512;19.054;2022-11-12T00:07:55;102034.25;;;10.04;82.22
75891;BME280;64571;47.512;19.054;2022-11-12T00:11:16;102028.69;;;10.04;82.23
75891;BME280;64571;47.512;19.054;2022-11-12T00:14:37;102014.25;;;10.02;82.11
75891;BME280;64571;47.512;19.054;2022-11-12T00:17:58;102008.00;;;9.95;82.10
75891;BME280;64571;47.512;19.054;2022-11-12T00:21:19;102010.63;;;10.01;82.17
75891;BME280;64571;47.512;19.054;2022-11-12T00:24:40;102012.56;;;10.01;82.41
75891;BME280;64571;47.512;19.054;2022-11-12T00:28:02;102010.38;;;10.03;82.68
75891;BME280;64571;47.512;19.054;2022-11-12T00:31:23;101990.78;;;9.93;82.77
75891;BME280;64571;47.512;19.054;2022-11-12T00:34:44;102019.03;;;10.06;82.66
75891;BME280;64571;47.512;19.054;2022-11-12T00:38:05;102014.25;;;10.02;82.46
75891;BME280;64571;47.512;19.054;2022-11-12T00:41:26;101992.53;;;9.99;82.02
75891;BME280;64571;47.512;19.054;2022-11-12T00:44:46;102008.41;;;10.03;81.93
75891;BME280;64571;47.512;19.054;2022-11-12T00:48:09;101996.75;;;10.01;81.87
75891;BME280;64571;47.512;19.054;2022-11-12T00:51:29;101995.06;;;10.00;81.92
75891;BME280;64571;47.512;19.054;2022-11-12T00:54:50;101975.97;;;9.87;82.01
75891;BME280;64571;47.512;19.054;2022-11-12T00:58:11;101988.75;;;10.05;82.02
75891;BME280;64571;47.512;19.054;2022-11-12T01:01:32;101991.59;;;10.10;81.91
75891;BME280;64571;47.512;19.054;2022-11-12T01:04:53;101988.47;;;10.06;81.79
75891;BME280;64571;47.512;19.054;2022-11-12T01:08:14;101965.28;;;9.96;81.83
75891;BME280;64571;47.512;19.054;2022-11-12T01:11:35;101966.94;;;9.97;81.74
75891;BME280;64571;47.512;19.054;2022-11-12T01:14:56;101980.47;;;10.10;81.68
75891;BME280;64571;47.512;19.054;2022-11-12T01:18:16;101955.66;;;10.03;81.49
75891;BME280;64571;47.512;19.054;2022-11-12T01:21:40;101955.91;;;10.02;81.56
75891;BME280;64571;47.512;19.054;2022-11-12T01:25:01;101958.19;;;10.05;81.60
75891;BME280;64571;47.512;19.054;2022-11-12T01:28:22;101959.59;;;10.07;81.77
75891;BME280;64571;47.512;19.054;2022-11-12T01:31:43;101972.97;;;10.10;81.98
75891;BME280;64571;47.512;19.054;2022-11-12T01:35:04;101965.75;;;10.09;81.98
75891;BME280;64571;47.512;19.054;2022-11-12T01:38:24;101966.59;;;10.10;82.19
75891;BME280;64571;47.512;19.054;2022-11-12T01:41:46;101954.16;;;9.96;82.63
75891;BME280;64571;47.512;19.054;2022-11-12T01:45:14;101966.44;;;10.00;83.10
75891;BME280;64571;47.512;19.054;2022-11-12T01:48:49;101942.37;;;9.88;83.13
75891;BME280;64571;47.512;19.054;2022-11-12T01:52:34;101946.78;;;9.84;83.06
75891;BME280;64571;47.512;19.054;2022-11-12T01:55:58;101962.59;;;9.84;83.22
75891;BME280;64571;47.512;19.054;2022-11-12T01:59:24;101946.47;;;9.64;83.33
75891;BME280;64571;47.512;19.054;2022-11-12T02:02:54;101958.22;;;9.71;83.33
75891;BME280;64571;47.512;19.054;2022-11-12T02:06:18;101952.44;;;9.56;83.39
75891;BME280;64571;47.512;19.054;2022-11-12T02:09:40;101966.41;;;9.61;83.30
75891;BME280;64571;47.512;19.054;2022-11-12T02:13:01;101962.53;;;9.62;83.52
75891;BME280;64571;47.512;19.054;2022-11-12T02:16:42;101950.25;;;9.58;83.54
75891;BME280;64571;47.512;19.054;2022-11-12T02:20:03;101942.94;;;9.52;83.74
75891;BME280;64571;47.512;19.054;2022-11-12T02:23:24;101946.13;;;9.44;84.01
75891;BME280;64571;47.512;19.054;2022-11-12T02:26:48;101924.75;;;9.27;84.20
75891;BME280;64571;47.512;19.054;2022-11-12T02:30:11;101934.19;;;9.26;84.27
75891;BME280;64571;47.512;19.054;2022-11-12T02:33:31;101930.75;;;9.19;84.43
75891;BME280;64571;47.512;19.054;2022-11-12T02:36:52;101950.47;;;9.23;84.75
75891;BME280;64571;47.512;19.054;2022-11-12T02:40:13;101941.00;;;9.19;84.58
75891;BME280;64571;47.512;19.054;2022-11-12T02:43:34;101954.69;;;9.25;84.97
75891;BME280;64571;47.512;19.054;2022-11-12T02:46:55;101930.31;;;9.10;85.11
75891;BME280;64571;47.512;19.054;2022-11-12T02:50:16;101932.47;;;9.08;85.30
75891;BME280;64571;47.512;19.054;2022-11-12T02:53:37;101966.81;;;9.19;85.47
75891;BME280;64571;47.512;19.054;2022-11-12T02:56:58;101963.94;;;9.14;85.56
75891;BME280;64571;47.512;19.054;2022-11-12T03:00:18;101947.63;;;9.01;85.77
75891;BME280;64571;47.512;19.054;2022-11-12T03:03:39;101962.41;;;9.06;85.75
75891;BME280;64571;47.512;19.054;2022-11-12T03:07:00;101933.62;;;8.96;85.74
75891;BME280;64571;47.512;19.054;2022-11-12T03:10:21;101940.06;;;8.96;85.64
75891;BME280;64571;47.512;19.054;2022-11-12T03:13:42;101967.62;;;9.03;85.71
75891;BME280;64571;47.512;19.054;2022-11-12T03:17:03;101947.06;;;8.87;85.81
75891;BME280;64571;47.512;19.054;2022-11-12T03:20:25;101964.03;;;8.91;86.01
75891;BME280;64571;47.512;19.054;2022-11-12T03:23:46;101959.84;;;8.88;86.16
75891;BME280;64571;47.512;19.054;2022-11-12T03:27:07;101973.72;;;8.88;86.26
75891;BME280;64571;47.512;19.054;2022-11-12T03:30:29;101963.84;;;8.80;86.52
75891;BME280;64571;47.512;19.054;2022-11-12T03:33:51;101973.50;;;8.78;86.83
75891;BME280;64571;47.512;19.054;2022-11-12T03:37:12;101979.31;;;8.76;86.81
75891;BME280;64571;47.512;19.054;2022-11-12T03:40:34;101970.50;;;8.79;86.64
75891;BME280;64571;47.512;19.054;2022-11-12T03:43:54;101962.00;;;8.69;86.59
75891;BME280;64571;47.512;19.054;2022-11-12T03:47:15;101974.94;;;8.80;86.44
75891;BME280;64571;47.512;19.054;2022-11-12T03:50:36;101964.03;;;8.74;86.47
75891;BME280;64571;47.512;19.054;2022-11-12T03:53:57;101981.69;;;8.84;86.59
75891;BME280;64571;47.512;19.054;2022-11-12T03:57:18;101979.75;;;8.85;86.62
75891;BME280;64571;47.512;19.054;2022-11-12T04:00:39;101974.09;;;8.80;86.76
75891;BME280;64571;47.512;19.054;2022-11-12T04:03:59;101979.31;;;8.76;86.89
75891;BME280;64571;47.512;19.054;2022-11-12T04:07:20;101962.37;;;8.61;87.26
75891;BME280;64571;47.512;19.054;2022-11-12T04:11:00;101976.22;;;8.61;87.66
75891;BME280;64571;47.512;19.054;2022-11-12T04:14:20;101963.22;;;8.61;87.56
75891;BME280;64571;47.512;19.054;2022-11-12T04:17:41;101973.34;;;8.56;87.46
75891;BME280;64571;47.512;19.054;2022-11-12T04:21:23;101945.31;;;8.41;87.48
75891;BME280;64571;47.512;19.054;2022-11-12T04:25:04;101969.13;;;8.53;87.42
75891;BME280;64571;47.512;19.054;2022-11-12T04:28:43;101959.03;;;8.35;87.45
75891;BME280;64571;47.512;19.054;2022-11-12T04:32:24;101968.09;;;8.43;87.63
75891;BME280;64571;47.512;19.054;2022-11-12T04:35:45;101989.16;;;8.44;87.74
75891;BME280;64571;47.512;19.054;2022-11-12T04:39:06;101980.50;;;8.40;87.98
75891;BME280;64571;47.512;19.054;2022-11-12T04:42:26;101953.66;;;8.29;87.89
75891;BME280;64571;47.512;19.054;2022-11-12T04:46:06;101950.62;;;8.30;87.88
75891;BME280;64571;47.512;19.054;2022-11-12T04:49:27;101975.31;;;8.44;87.83
75891;BME280;64571;47.512;19.054;2022-11-12T04:52:48;101961.94;;;8.41;87.85
75891;BME280;64571;47.512;19.054;2022-11-12T04:56:09;101964.72;;;8.41;87.96
75891;BME280;64571;47.512;19.054;2022-11-12T04:59:29;101969.16;;;8.42;87.91
75891;BME280;64571;47.512;19.054;2022-11-12T05:02:50;101953.88;;;8.27;87.90
75891;BME280;64571;47.512;19.054;2022-11-12T05:06:11;101961.59;;;8.25;87.99
75891;BME280;64571;47.512;19.054;2022-11-12T05:09:50;101974.72;;;8.30;87.96
75891;BME280;64571;47.512;19.054;2022-11-12T05:13:11;101978.81;;;8.39;87.99
75891;BME280;64571;47.512;19.054;2022-11-12T05:16:32;101982.16;;;8.41;87.93
75891;BME280;64571;47.512;19.054;2022-11-12T05:19:53;101954.97;;;8.26;88.10
75891;BME280;64571;47.512;19.054;2022-11-12T05:23:14;101987.38;;;8.38;88.11
75891;BME280;64571;47.512;19.054;2022-11-12T05:26:35;101982.69;;;8.38;88.15
75891;BME280;64571;47.512;19.054;2022-11-12T05:29:55;101998.06;;;8.34;88.26
75891;BME280;64571;47.512;19.054;2022-11-12T05:33:16;101975.81;;;8.17;88.52
75891;BME280;64571;47.512;19.054;2022-11-12T05:36:37;101967.12;;;8.13;88.75
75891;BME280;64571;47.512;19.054;2022-11-12T05:39:58;101969.91;;;8.13;88.75
75891;BME280;64571;47.512;19.054;2022-11-12T05:43:19;101986.16;;;8.22;88.90
75891;BME280;64571;47.512;19.054;2022-11-12T05:46:39;101975.09;;;8.10;89.04
75891;BME280;64571;47.512;19.054;2022-11-12T05:50:00;101991.34;;;8.18;89.05
75891;BME280;64571;47.512;19.054;2022-11-12T05:53:21;101969.94;;;8.02;89.28
75891;BME280;64571;47.512;19.054;2022-11-12T05:56:42;101977.62;;;8.00;89.36
75891;BME280;64571;47.512;19.054;2022-11-12T06:00:03;101999.91;;;8.17;89.36
75891;BME280;64571;47.512;19.054;2022-11-12T06:03:24;101998.22;;;8.04;89.40
75891;BME280;64571;47.512;19.054;2022-11-12T06:06:45;102016.63;;;8.10;89.51
75891;BME280;64571;47.512;19.054;2022-11-12T06:10:06;102007.09;;;8.06;89.60
75891;BME280;64571;47.512;19.054;2022-11-12T06:13:28;102021.47;;;8.03;89.80
75891;BME280;64571;47.512;19.054;2022-11-12T06:16:48;102024.81;;;8.05;89.78
75891;BME280;64571;47.512;19.054;2022-11-12T06:20:10;102014.59;;;7.94;89.70
75891;BME280;64571;47.512;19.054;2022-11-12T06:23:31;102024.34;;;7.96;90.24
75891;BME280;64571;47.512;19.054;2022-11-12T06:26:52;102033.00;;;8.00;89.69
75891;BME280;64571;47.512;19.054;2022-11-12T06:30:13;102028.53;;;7.87;89.51
75891;BME280;64571;47.512;19.054;2022-11-12T06:33:34;102032.16;;;7.87;89.48
75891;BME280;64571;47.512;19.054;2022-11-12T06:36:55;102049.97;;;7.92;89.37
75891;BME280;64571;47.512;19.054;2022-11-12T06:40:16;102064.19;;;7.83;89.40
75891;BME280;64571;47.512;19.054;2022-11-12T06:43:37;102067.41;;;7.80;89.45
75891;BME280;64571;47.512;19.054;2022-11-12T06:46:58;102067.75;;;7.72;89.55
75891;BME280;64571;47.512;19.054;2022-11-12T06:50:18;102066.44;;;7.75;89.63
75891;BME280;64571;47.512;19.054;2022-11-12T06:53:39;102039.84;;;7.62;89.53
75891;BME280;64571;47.512;19.054;2022-11-12T06:57:00;102057.44;;;7.79;89.30
75891;BME280;64571;47.512;19.054;2022-11-12T07:00:21;102052.38;;;7.76;89.33
75891;BME280;64571;47.512;19.054;2022-11-12T07:03:43;102042.72;;;7.67;89.29
75891;BME280;64571;47.512;19.054;2022-11-12T07:07:04;102049.22;;;7.73;89.31
75891;BME280;64571;47.512;19.054;2022-11-12T07:10:30;102083.69;;;7.89;89.10
75891;BME280;64571;47.512;19.054;2022-11-12T07:13:51;102069.00;;;7.88;88.84
75891;BME280;64571;47.512;19.054;2022-11-12T07:17:12;102104.28;;;8.04;88.54
75891;BME280;64571;47.512;19.054;2022-11-12T07:20:33;102100.78;;;8.09;88.44
75891;BME280;64571;47.512;19.054;2022-11-12T07:23:54;102084.06;;;8.16;88.21
75891;BME280;64571;47.512;19.054;2022-11-12T07:27:15;102076.97;;;8.20;88.16
75891;BME280;64571;47.512;19.054;2022-11-12T07:30:36;102083.31;;;8.32;87.70
75891;BME280;64571;47.512;19.054;2022-11-12T07:33:57;102087.66;;;8.28;87.74
75891;BME280;64571;47.512;19.054;2022-11-12T07:37:18;102084.41;;;8.31;87.46
75891;BME280;64571;47.512;19.054;2022-11-12T07:40:38;102064.91;;;8.26;87.36
75891;BME280;64571;47.512;19.054;2022-11-12T07:43:59;102081.28;;;8.51;86.88
75891;BME280;64571;47.512;19.054;2022-11-12T07:47:20;102066.84;;;8.60;86.04
75891;BME280;64571;47.512;19.054;2022-11-12T07:50:40;102072.34;;;8.84;85.15
75891;BME280;64571;47.512;19.054;2022-11-12T07:54:01;102075.22;;;9.18;84.24
75891;BME280;64571;47.512;19.054;2022-11-12T07:57:23;102074.00;;;9.25;83.43
75891;BME280;64571;47.512;19.054;2022-11-12T08:00:44;102074.72;;;9.49;82.76
75891;BME280;64571;47.512;19.054;2022-11-12T08:04:08;102076.28;;;9.45;82.69
75891;BME280;64571;47.512;19.054;2022-11-12T08:07:29;102093.06;;;9.67;81.89
75891;BME280;64571;47.512;19.054;2022-11-12T08:10:54;102097.56;;;9.68;82.15
75891;BME280;64571;47.512;19.054;2022-11-12T08:14:15;102097.34;;;9.58;82.04
75891;BME280;64571;47.512;19.054;2022-11-12T08:17:38;102100.97;;;9.58;82.17
75891;BME280;64571;47.512;19.054;2022-11-12T08:21:00;102107.13;;;9.60;82.24
75891;BME280;64571;47.512;19.054;2022-11-12T08:24:21;102093.47;;;9.42;82.62
75891;BME280;64571;47.512;19.054;2022-11-12T08:27:42;102112.25;;;9.52;82.90
75891;BME280;64571;47.512;19.054;2022-11-12T08:34:28;102114.22;;;9.68;82.69
75891;BME280;64571;47.512;19.054;2022-11-12T08:37:48;102098.09;;;9.53;82.33
75891;BME280;64571;47.512;19.054;2022-11-12T08:41:12;102111.00;;;9.59;82.78
75891;BME280;64571;47.512;19.054;2022-11-12T08:44:33;102091.13;;;9.51;82.76
75891;BME280;64571;47.512;19.054;2022-11-12T08:48:01;102122.56;;;9.85;82.06
75891;BME280;64571;47.512;19.054;2022-11-12T08:51:22;102115.06;;;9.85;81.96
75891;BME280;64571;47.512;19.054;2022-11-12T08:54:43;102103.34;;;9.67;82.26
75891;BME280;64571;47.512;19.054;2022-11-12T08:58:04;102120.59;;;9.69;82.71
75891;BME280;64571;47.512;19.054;2022-11-12T09:01:25;102119.84;;;9.73;82.90
75891;BME280;64571;47.512;19.054;2022-11-12T09:04:46;102124.97;;;9.81;82.77
75891;BME280;64571;47.512;19.054;2022-11-12T09:08:18;102130.53;;;9.81;82.88
75891;BME280;64571;47.512;19.054;2022-11-12T09:11:39;102117.91;;;9.74;83.01
75891;BME280;64571;47.512;19.054;2022-11-12T09:15:01;102119.84;;;9.73;83.07
75891;BME280;64571;47.512;19.054;2022-11-12T09:18:42;102126.84;;;9.76;83.01
75891;BME280;64571;47.512;19.054;2022-11-12T09:22:03;102148.47;;;9.90;82.84
75891;BME280;64571;47.512;19.054;2022-11-12T09:25:24;102143.19;;;9.89;83.04
75891;BME280;64571;47.512;19.054;2022-11-12T09:28:45;102155.06;;;10.01;82.77
75891;BME280;64571;47.512;19.054;2022-11-12T09:32:06;102170.72;;;10.07;82.59
75891;BME280;64571;47.512;19.054;2022-11-12T09:35:26;102163.06;;;10.14;82.35
75891;BME280;64571;47.512;19.054;2022-11-12T09:38:47;102163.72;;;10.22;82.05
75891;BME280;64571;47.512;19.054;2022-11-12T09:42:12;102164.72;;;10.27;81.99
75891;BME280;64571;47.512;19.054;2022-11-12T09:45:35;102159.75;;;10.29;81.74
75891;BME280;64571;47.512;19.054;2022-11-12T09:50:09;102159.66;;;10.41;81.53
75891;BME280;64571;47.512;19.054;2022-11-12T09:53:16;102156.34;;;10.44;81.55
75891;BME280;64571;47.512;19.054;2022-11-12T09:56:38;102160.72;;;10.57;81.04
75891;BME280;64571;47.512;19.054;2022-11-12T09:59:59;102151.87;;;10.60;80.77
75891;BME280;64571;47.512;19.054;2022-11-12T10:03:39;102167.84;;;10.86;80.20
75891;BME280;64571;47.512;19.054;2022-11-12T10:07:31;102161.25;;;10.93;79.63
75891;BME280;64571;47.512;19.054;2022-11-12T10:11:06;102158.81;;;10.96;79.37
75891;BME280;64571;47.512;19.054;2022-11-12T10:25:50;102170.78;;;11.84;76.40
75891;BME280;64571;47.512;19.054;2022-11-12T10:29:50;102157.84;;;12.05;75.92
75891;BME280;64571;47.512;19.054;2022-11-12T10:33:13;102150.69;;;12.14;75.69
75891;BME280;64571;47.512;19.054;2022-11-12T10:36:35;102151.34;;;12.27;75.30
75891;BME280;64571;47.512;19.054;2022-11-12T10:39:57;102152.00;;;12.34;74.85
75891;BME280;64571;47.512;19.054;2022-11-12T10:43:21;102155.03;;;12.32;74.68
75891;BME280;64571;47.512;19.054;2022-11-12T10:46:42;102131.03;;;12.31;74.74
75891;BME280;64571;47.512;19.054;2022-11-12T10:53:38;102138.91;;;12.39;74.26
75891;BME280;64571;47.512;19.054;2022-11-12T10:57:18;102141.94;;;12.38;74.52
75891;BME280;64571;47.512;19.054;2022-11-12T11:01:01;102125.44;;;12.26;74.55
75891;BME280;64571;47.512;19.054;2022-11-12T11:04:35;102139.97;;;12.33;74.68
75891;BME280;64571;47.512;19.054;2022-11-12T11:07:57;102131.16;;;12.47;74.27
75891;BME280;64571;47.512;19.054;2022-11-12T11:15:04;102128.13;;;13.01;72.69
75891;BME280;64571;47.512;19.054;2022-11-12T11:18:28;102101.94;;;13.07;71.65
75891;BME280;64571;47.512;19.054;2022-11-12T11:25:14;102108.75;;;13.41;70.84
75891;BME280;64571;47.512;19.054;2022-11-12T11:28:46;102112.66;;;13.35;70.57
75891;BME280;64571;47.512;19.054;2022-11-12T11:32:44;102114.06;;;13.33;70.67
75891;BME280;64571;47.512;19.054;2022-11-12T11:40:21;102108.00;;;13.61;70.30
75891;BME280;64571;47.512;19.054;2022-11-12T12:06:25;102093.78;;;13.88;69.06
75891;BME280;64571;47.512;19.054;2022-11-12T12:09:56;102087.87;;;13.80;69.37
75891;BME280;64571;47.512;19.054;2022-11-12T12:20:34;102084.84;;;13.91;68.89
75891;BME280;64571;47.512;19.054;2022-11-12T12:24:53;102070.28;;;13.94;68.95
75891;BME280;64571;47.512;19.054;2022-11-12T12:28:21;102067.19;;;13.91;69.00
75891;BME280;64571;47.512;19.054;2022-11-12T12:31:54;102063.00;;;13.99;68.88
75891;BME280;64571;47.512;19.054;2022-11-12T12:35:32;102059.94;;;14.00;69.00
75891;BME280;64571;47.512;19.054;2022-11-12T12:39:14;102061.34;;;14.03;68.91
75891;BME280;64571;47.512;19.054;2022-11-12T12:42:43;102054.91;;;13.97;69.06
75891;BME280;64571;47.512;19.054;2022-11-12T12:46:04;102048.75;;;13.80;69.26
75891;BME280;64571;47.512;19.054;2022-11-12T12:49:31;102047.66;;;13.71;69.28
75891;BME280;64571;47.512;19.054;2022-11-12T12:56:42;102053.81;;;13.88;69.45
75891;BME280;64571;47.512;19.054;2022-11-12T13:00:27;102062.19;;;13.93;69.23
75891;BME280;64571;47.512;19.054;2022-11-12T13:03:59;102057.72;;;13.97;69.15
75891;BME280;64571;47.512;19.054;2022-11-12T13:07:59;102054.34;;;13.95;69.08
75891;BME280;64571;47.512;19.054;2022-11-12T13:15:42;102057.44;;;13.93;69.54
75891;BME280;64571;47.512;19.054;2022-11-12T13:19:03;102037.31;;;13.76;69.68
75891;BME280;64571;47.512;19.054;2022-11-12T13:25:45;102053.81;;;13.88;69.91
75891;BME280;64571;47.512;19.054;2022-11-12T13:36:27;102049.06;;;13.78;70.11
75891;BME280;64571;47.512;19.054;2022-11-12T13:39:49;102033.09;;;13.63;70.08
75891;BME280;64571;47.512;19.054;2022-11-12T13:46:55;102056.31;;;13.79;70.24
75891;BME280;64571;47.512;19.054;2022-11-12T13:50:19;102053.78;;;13.78;70.15
75891;BME280;64571;47.512;19.054;2022-11-12T13:53:40;102048.19;;;13.67;70.26
75891;BME280;64571;47.512;19.054;2022-11-12T13:57:26;102047.34;;;13.62;70.48
75891;BME280;64571;47.512;19.054;2022-11-12T14:00:58;102059.94;;;13.75;70.51
75891;BME280;64571;47.512;19.054;2022-11-12T14:04:21;102056.31;;;13.74;70.51
75891;BME280;64571;47.512;19.054;2022-11-12T14:08:20;102053.22;;;13.81;70.49
75891;BME280;64571;47.512;19.054;2022-11-12T14:19:39;102059.09;;;13.79;70.31
75891;BME280;64571;47.512;19.054;2022-11-12T14:23:15;102047.34;;;13.72;68.72
75891;BME280;64571;47.512;19.054;2022-11-12T14:26:43;102053.78;;;13.67;70.32
75891;BME280;64571;47.512;19.054;2022-11-12T14:33:33;102052.94;;;13.72;66.92
75891;BME280;64571;47.512;19.054;2022-11-12T14:36:54;102034.22;;;13.62;65.99
75891;BME280;64571;47.512;19.054;2022-11-12T14:40:17;102044.84;;;13.71;65.17
75891;BME280;64571;47.512;19.054;2022-11-12T14:43:43;102044.84;;;13.65;65.79
75891;BME280;64571;47.512;19.054;2022-11-12T14:47:05;102032.25;;;13.48;66.86
75891;BME280;64571;47.512;19.054;2022-11-12T14:50:29;102024.72;;;13.43;67.62
75891;BME280;64571;47.512;19.054;2022-11-12T14:54:04;102043.97;;;13.45;68.32
75891;BME280;64571;47.512;19.054;2022-11-12T14:57:29;102049.56;;;13.34;68.81
75891;BME280;64571;47.512;19.054;2022-11-12T15:00:52;102044.50;;;13.36;69.30
75891;BME280;64571;47.512;19.054;2022-11-12T15:04:19;102024.66;;;13.23;69.59
75891;BME280;64571;47.512;19.054;2022-11-12T15:07:56;102046.16;;;13.27;69.83
75891;BME280;64571;47.512;19.054;2022-11-12T15:11:32;102057.34;;;13.22;69.97
75891;BME280;64571;47.512;19.054;2022-11-12T15:15:09;102048.59;;;13.08;70.04
75891;BME280;64571;47.512;19.054;2022-11-12T15:18:37;102053.66;;;13.11;70.32
75891;BME280;64571;47.512;19.054;2022-11-12T15:22:00;102044.34;;;12.90;70.64
75891;BME280;64571;47.512;19.054;2022-11-12T15:25:26;102058.59;;;12.89;71.38
75891;BME280;64571;47.512;19.054;2022-11-12T15:32:32;102045.12;;;12.71;72.13
75891;BME280;64571;47.512;19.054;2022-11-12T15:35:57;102063.84;;;12.80;72.46
75891;BME280;64571;47.512;19.054;2022-11-12T15:39:20;102046.50;;;12.68;73.12
75891;BME280;64571;47.512;19.054;2022-11-12T15:42:42;102059.88;;;12.66;73.37
75891;BME280;64571;47.512;19.054;2022-11-12T15:46:02;102068.81;;;12.68;73.52
75891;BME280;64571;47.512;19.054;2022-11-12T15:49:23;102082.22;;;12.71;73.78
75891;BME280;64571;47.512;19.054;2022-11-12T15:52:45;102080.50;;;12.65;73.90
75891;BME280;64571;47.512;19.054;2022-11-12T15:56:10;102077.44;;;12.61;74.07
75891;BME280;64571;47.512;19.054;2022-11-12T15:59:32;102081.59;;;12.59;74.35
75891;BME280;64571;47.512;19.054;2022-11-12T16:02:56;102092.75;;;12.59;74.46
75891;BME280;64571;47.512;19.054;2022-11-12T16:06:18;102085.81;;;12.61;74.49
75891;BME280;64571;47.512;19.054;2022-11-12T16:09:39;102093.88;;;12.63;74.51
75891;BME280;64571;47.512;19.054;2022-11-12T16:13:01;102087.44;;;12.57;74.64
75891;BME280;64571;47.512;19.054;2022-11-12T16:16:23;102096.12;;;12.61;74.89
75891;BME280;64571;47.512;19.054;2022-11-12T16:19:44;102090.47;;;12.56;75.15
75891;BME280;64571;47.512;19.054;2022-11-12T16:23:05;102080.97;;;12.52;75.22
75891;BME280;64571;47.512;19.054;2022-11-12T16:26:29;102093.88;;;12.58;75.42
75891;BME280;64571;47.512;19.054;2022-11-12T16:29:51;102093.03;;;12.57;75.51
75891;BME280;64571;47.512;19.054;2022-11-12T16:33:12;102082.13;;;12.56;75.64
75891;BME280;64571;47.512;19.054;2022-11-12T16:36:33;102086.84;;;12.55;75.72
75891;BME280;64571;47.512;19.054;2022-11-12T16:39:54;102077.31;;;12.46;75.77
75891;BME280;64571;47.512;19.054;2022-11-12T16:43:16;102065.84;;;12.42;75.86
75891;BME280;64571;47.512;19.054;2022-11-12T16:46:37;102088.78;;;12.50;75.95
75891;BME280;64571;47.512;19.054;2022-11-12T16:49:59;102093.81;;;12.48;76.24
75891;BME280;64571;47.512;19.054;2022-11-12T16:53:20;102088.75;;;12.45;76.37
75891;BME280;64571;47.512;19.054;2022-11-12T16:56:41;102087.09;;;12.44;76.54
75891;BME280;64571;47.512;19.054;2022-11-12T17:00:03;102089.88;;;12.44;76.62
75891;BME280;64571;47.512;19.054;2022-11-12T17:03:25;102085.38;;;12.42;76.70
75891;BME280;64571;47.512;19.054;2022-11-12T17:06:46;102084.81;;;12.40;76.66
75891;BME280;64571;47.512;19.054;2022-11-12T17:10:07;102088.69;;;12.34;76.95
75891;BME280;64571;47.512;19.054;2022-11-12T17:13:28;102088.38;;;12.31;77.21
75891;BME280;64571;47.512;19.054;2022-11-12T17:16:49;102091.37;;;12.24;77.50
75891;BME280;64571;47.512;19.054;2022-11-12T17:20:10;102084.37;;;12.16;77.79
75891;BME280;64571;47.512;19.054;2022-11-12T17:23:31;102064.75;;;12.01;78.08
75891;BME280;64571;47.512;19.054;2022-11-12T17:26:52;102070.00;;;11.98;78.32
75891;BME280;64571;47.512;19.054;2022-11-12T17:30:13;102084.84;;;12.03;78.47
75891;BME280;64571;47.512;19.054;2022-11-12T17:33:39;102083.69;;;11.99;78.63
75891;BME280;64571;47.512;19.054;2022-11-12T17:37:00;102073.06;;;11.96;78.81
75891;BME280;64571;47.512;19.054;2022-11-12T17:40:21;102068.78;;;11.83;79.12
75891;BME280;64571;47.512;19.054;2022-11-12T17:43:42;102065.66;;;11.80;79.31
75891;BME280;64571;47.512;19.054;2022-11-12T17:47:03;102065.34;;;11.76;79.46
75891;BME280;64571;47.512;19.054;2022-11-12T17:50:24;102080.50;;;11.85;79.44
75891;BME280;64571;47.512;19.054;2022-11-12T17:53:45;102060.31;;;11.73;79.54
75891;BME280;64571;47.512;19.054;2022-11-12T17:57:06;102063.34;;;11.72;79.80
75891;BME280;64571;47.512;19.054;2022-11-12T18:00:27;102085.16;;;11.80;79.97
75891;BME280;64571;47.512;19.054;2022-11-12T18:03:50;102064.44;;;11.71;80.05
75891;BME280;64571;47.512;19.054;2022-11-12T18:07:11;102081.50;;;11.79;80.10
75891;BME280;64571;47.512;19.054;2022-11-12T18:10:31;102078.16;;;11.77;80.23
75891;BME280;64571;47.512;19.054;2022-11-12T18:13:53;102086.53;;;11.77;80.32
75891;BME280;64571;47.512;19.054;2022-11-12T18:17:14;102063.03;;;11.68;80.29
75891;BME280;64571;47.512;19.054;2022-11-12T18:20:35;102087.34;;;11.78;80.33
75891;BME280;64571;47.512;19.054;2022-11-12T18:23:57;102067.22;;;11.71;80.36
75891;BME280;64571;47.512;19.054;2022-11-12T18:27:19;102089.69;;;11.86;80.13
75891;BME280;64571;47.512;19.054;2022-11-12T18:30:39;102088.91;;;11.90;80.02
75891;BME280;64571;47.512;19.054;2022-11-12T18:34:00;102091.16;;;11.94;79.94
75891;BME280;64571;47.512;19.054;2022-11-12T18:37:21;102076.31;;;11.88;79.94
75891;BME280;64571;47.512;19.054;2022-11-12T18:40:42;102092.88;;;12.00;79.88
75891;BME280;64571;47.512;19.054;2022-11-12T18:44:03;102091.44;;;11.97;79.92
75891;BME280;64571;47.512;19.054;2022-11-12T18:47:24;102095.03;;;11.93;79.97
75891;BME280;64571;47.512;19.054;2022-11-12T18:50:45;102096.44;;;11.90;80.09
75891;BME280;64571;47.512;19.054;2022-11-12T18:54:06;102105.91;;;11.89;80.13
75891;BME280;64571;47.512;19.054;2022-11-12T18:57:27;102104.75;;;11.85;80.37
75891;BME280;64571;47.512;19.054;2022-11-12T19:00:48;102110.56;;;11.83;80.47
75891;BME280;64571;47.512;19.054;2022-11-12T19:04:10;102110.56;;;11.83;80.50
75891;BME280;64571;47.512;19.054;2022-11-12T19:07:30;102095.66;;;11.73;80.61
75891;BME280;64571;47.512;19.054;2022-11-12T19:11:02;102098.72;;;11.71;80.64
75891;BME280;64571;47.512;19.054;2022-11-12T19:14:23;102100.19;;;11.79;80.73
75891;BME280;64571;47.512;19.054;2022-11-12T19:17:44;102107.69;;;11.78;80.97